Time;durP1;ratioP1;P1;durP2;ratioP2;P2;SDS_P1;SDS_P2;PMS_P1;PMS_P2;Temp;Humidity;BMP_temperature;BMP_pressure;BME280_temperature;BME280_humidity;BME280_pressure;Samples;Min_cycle;Max_cycle;Signal;HPM_P1;HPM_P2
2023/07/10 00:01:14;;;;;;;9.48;3.38;;;;;;;;;;4997104;28;20029;-67
2023/07/10 00:03:40;;;;;;;7.80;3.75;;;;;;;;;;4996329;28;20047;-69
2023/07/10 00:06:09;;;;;;;11.50;3.85;;;;;;;;;;5025101;28;20658;-70
2023/07/10 00:08:34;;;;;;;10.18;4.00;;;;;;;;;;4992418;28;20046;-68
2023/07/10 00:11:02;;;;;;;9.20;4.75;;;;;;;;;;4996700;28;20847;-69
2023/07/10 00:13:28;;;;;;;7.57;3.70;;;;;;;;;;5013698;28;20107;-69
2023/07/10 00:15:53;;;;;;;9.30;3.88;;;;;;;;;;4998456;28;20037;-69
2023/07/10 00:18:20;;;;;;;10.82;4.30;;;;;;;;;;5006926;28;20059;-70
2023/07/10 00:20:48;;;;;;;8.25;3.90;;;;;;;;;;5039305;28;20524;-70
2023/07/10 00:23:15;;;;;;;9.50;4.60;;;;;;;;;;5034889;28;20048;-76
2023/07/10 00:25:40;;;;;;;9.93;4.00;;;;;;;;;;5022344;28;20033;-75
2023/07/10 00:28:16;;;;;;;8.73;4.18;;;;;;;;;;5021660;28;20044;-76
2023/07/10 00:30:42;;;;;;;12.10;4.40;;;;;;;;;;5034937;28;20033;-76
2023/07/10 00:33:09;;;;;;;10.15;3.70;;;;;;;;;;5021640;28;20059;-76
2023/07/10 00:35:35;;;;;;;11.57;4.10;;;;;;;;;;5029455;28;20032;-75
2023/07/10 00:38:01;;;;;;;10.43;4.43;;;;;;;;;;5021734;28;20401;-76
2023/07/10 00:40:31;;;;;;;14.40;5.00;;;;;;;;;;5021348;28;20021;-76
2023/07/10 00:42:59;;;;;;;10.70;4.47;;;;;;;;;;5019959;28;20039;-76
2023/07/10 00:45:25;;;;;;;11.48;4.97;;;;;;;;;;5015644;28;20063;-75
2023/07/10 00:47:58;;;;;;;9.93;4.80;;;;;;;;;;5014698;28;20116;-76
2023/07/10 00:50:53;;;;;;;9.38;4.68;;;;;;;;;;5017917;28;20039;-76
2023/07/10 00:53:25;;;;;;;9.88;4.18;;;;;;;;;;5009467;28;20036;-68
2023/07/10 00:55:53;;;;;;;9.60;4.40;;;;;;;;;;5026466;28;20132;-68
2023/07/10 00:58:25;;;;;;;8.55;3.70;;;;;;;;;;5021308;28;20485;-68
2023/07/10 01:01:01;;;;;;;9.75;3.30;;;;;;;;;;5015731;28;20033;-68
2023/07/10 01:03:26;;;;;;;9.95;3.40;;;;;;;;;;5017069;28;20061;-69
2023/07/10 01:05:51;;;;;;;6.05;2.78;;;;;;;;;;5015581;28;20098;-68
2023/07/10 01:08:17;;;;;;;6.20;3.30;;;;;;;;;;5013071;28;20041;-69
2023/07/10 01:10:42;;;;;;;5.55;2.88;;;;;;;;;;5048921;28;20033;-68
2023/07/10 01:13:08;;;;;;;7.90;3.30;;;;;;;;;;5019188;28;22292;-68
2023/07/10 01:15:34;;;;;;;7.88;3.10;;;;;;;;;;5014477;28;20041;-68
2023/07/10 01:17:59;;;;;;;7.50;3.42;;;;;;;;;;5016540;28;20033;-68
2023/07/10 01:20:27;;;;;;;6.43;3.25;;;;;;;;;;5047342;28;20032;-69
2023/07/10 01:22:53;;;;;;;8.07;3.83;;;;;;;;;;5017703;28;20481;-68
2023/07/10 01:25:18;;;;;;;6.10;3.70;;;;;;;;;;5011434;28;20045;-68
2023/07/10 01:27:44;;;;;;;7.10;3.63;;;;;;;;;;5013825;28;20057;-67
2023/07/10 01:30:26;;;;;;;6.60;3.33;;;;;;;;;;5015599;28;21436;-68
2023/07/10 01:32:52;;;;;;;7.28;3.50;;;;;;;;;;5016077;28;20033;-68
2023/07/10 01:35:17;;;;;;;7.15;3.42;;;;;;;;;;5017065;28;20160;-76
2023/07/10 01:37:43;;;;;;;6.82;3.33;;;;;;;;;;5016406;28;20067;-75
2023/07/10 01:40:13;;;;;;;7.25;3.30;;;;;;;;;;5013716;28;20033;-76
2023/07/10 01:42:38;;;;;;;7.63;2.95;;;;;;;;;;5020879;28;20162;-76
2023/07/10 01:45:11;;;;;;;5.90;2.60;;;;;;;;;;5017818;28;20048;-74
2023/07/10 01:47:36;;;;;;;9.45;2.42;;;;;;;;;;5017039;28;20082;-75
2023/07/10 01:50:01;;;;;;;6.80;2.75;;;;;;;;;;5017676;28;20048;-76
2023/07/10 01:52:27;;;;;;;7.20;2.33;;;;;;;;;;5016733;28;20136;-76
2023/07/10 01:54:52;;;;;;;6.95;2.45;;;;;;;;;;5013009;28;20075;-75
2023/07/10 01:57:23;;;;;;;7.55;1.85;;;;;;;;;;5018025;28;20140;-74
2023/07/10 01:59:49;;;;;;;4.82;1.92;;;;;;;;;;5012812;28;20249;-75
2023/07/10 02:02:14;;;;;;;5.03;2.03;;;;;;;;;;5015788;28;20048;-74
2023/07/10 02:04:39;;;;;;;7.95;2.53;;;;;;;;;;5041446;28;20092;-75
2023/07/10 02:07:05;;;;;;;6.30;2.17;;;;;;;;;;4994466;28;20037;-74
2023/07/10 02:09:31;;;;;;;7.13;2.25;;;;;;;;;;5016946;28;20044;-74
2023/07/10 02:11:57;;;;;;;10.15;2.58;;;;;;;;;;5020345;28;20044;-76
2023/07/10 02:14:22;;;;;;;12.30;3.00;;;;;;;;;;5021509;28;20043;-75
2023/07/10 02:16:48;;;;;;;8.90;2.50;;;;;;;;;;5021923;28;20048;-75
2023/07/10 02:19:13;;;;;;;6.00;2.13;;;;;;;;;;5013296;28;21809;-75
2023/07/10 02:21:39;;;;;;;7.93;2.60;;;;;;;;;;5016923;28;20033;-75
2023/07/10 02:24:05;;;;;;;5.70;2.42;;;;;;;;;;5018812;28;20056;-76
2023/07/10 02:26:30;;;;;;;10.13;2.90;;;;;;;;;;5016873;28;20041;-75
2023/07/10 02:28:57;;;;;;;11.60;2.85;;;;;;;;;;5015632;28;20595;-76
2023/07/10 02:31:22;;;;;;;8.48;2.90;;;;;;;;;;5013607;28;20037;-75
2023/07/10 02:33:47;;;;;;;10.20;3.00;;;;;;;;;;5016132;28;20451;-76
2023/07/10 02:36:13;;;;;;;10.85;2.88;;;;;;;;;;5015382;28;20061;-76
2023/07/10 02:38:41;;;;;;;5.13;2.47;;;;;;;;;;5007907;28;20152;-75
2023/07/10 02:41:07;;;;;;;13.70;3.10;;;;;;;;;;4996527;28;20759;-75
2023/07/10 02:43:33;;;;;;;8.00;2.80;;;;;;;;;;4994199;28;20122;-77
2023/07/10 02:45:58;;;;;;;7.93;3.08;;;;;;;;;;4996595;28;20087;-75
2023/07/10 02:48:23;;;;;;;9.32;3.30;;;;;;;;;;5001940;28;20044;-76
2023/07/10 02:50:49;;;;;;;7.88;2.63;;;;;;;;;;5025335;28;20059;-76
2023/07/10 02:53:14;;;;;;;9.23;2.97;;;;;;;;;;5022044;28;20060;-76
2023/07/10 02:55:42;;;;;;;14.57;3.22;;;;;;;;;;5014517;28;20044;-74
2023/07/10 02:58:08;;;;;;;11.20;3.13;;;;;;;;;;4997681;28;20053;-75
2023/07/10 03:00:36;;;;;;;9.30;3.05;;;;;;;;;;5014470;28;20097;-75
2023/07/10 03:03:02;;;;;;;15.30;3.20;;;;;;;;;;5021324;28;20031;-74
2023/07/10 03:05:32;;;;;;;12.52;3.22;;;;;;;;;;5011884;28;20064;-76
2023/07/10 03:07:57;;;;;;;11.27;2.78;;;;;;;;;;4995562;28;20033;-76
2023/07/10 03:10:23;;;;;;;11.35;3.13;;;;;;;;;;4998124;28;20501;-76
2023/07/10 03:12:48;;;;;;;13.23;3.20;;;;;;;;;;5016359;28;20041;-75
2023/07/10 03:15:15;;;;;;;9.30;3.00;;;;;;;;;;5026770;28;20479;-76
2023/07/10 03:17:41;;;;;;;13.95;3.28;;;;;;;;;;5015390;28;20048;-76
2023/07/10 03:20:09;;;;;;;11.05;3.00;;;;;;;;;;5007231;28;20223;-74
2023/07/10 03:22:35;;;;;;;11.75;3.22;;;;;;;;;;5008163;28;20524;-76
2023/07/10 03:25:00;;;;;;;12.52;2.90;;;;;;;;;;5027423;28;20034;-74
2023/07/10 03:27:29;;;;;;;15.90;3.00;;;;;;;;;;5033471;28;20090;-73
2023/07/10 03:29:55;;;;;;;10.73;2.80;;;;;;;;;;5018532;28;22267;-75
2023/07/10 03:32:20;;;;;;;10.65;2.90;;;;;;;;;;5027872;28;20127;-74
2023/07/10 03:34:47;;;;;;;10.43;2.83;;;;;;;;;;5014400;28;20045;-75
2023/07/10 03:37:13;;;;;;;11.30;2.97;;;;;;;;;;5014904;28;20028;-74
2023/07/10 03:39:38;;;;;;;11.00;2.72;;;;;;;;;;5016973;28;20037;-73
2023/07/10 03:42:04;;;;;;;9.32;2.70;;;;;;;;;;5028587;28;20115;-74
2023/07/10 03:44:30;;;;;;;8.50;2.80;;;;;;;;;;5015204;28;20071;-73
2023/07/10 03:46:56;;;;;;;7.45;2.75;;;;;;;;;;5012847;28;20037;-76
2023/07/10 03:49:22;;;;;;;10.00;3.20;;;;;;;;;;5018708;28;20071;-75
2023/07/10 03:51:47;;;;;;;7.00;3.08;;;;;;;;;;5020194;28;20033;-75
2023/07/10 03:54:14;;;;;;;10.73;2.92;;;;;;;;;;5015080;28;20037;-75
2023/07/10 03:56:39;;;;;;;13.68;3.20;;;;;;;;;;5018374;28;20610;-75
2023/07/10 03:59:06;;;;;;;10.88;2.90;;;;;;;;;;5034055;28;20037;-75
2023/07/10 04:01:31;;;;;;;9.45;2.53;;;;;;;;;;5018542;28;20036;-75
2023/07/10 04:03:56;;;;;;;10.30;2.65;;;;;;;;;;5015514;28;20119;-77
2023/07/10 04:06:22;;;;;;;7.75;2.67;;;;;;;;;;5018671;28;20041;-76
2023/07/10 04:08:48;;;;;;;12.25;2.70;;;;;;;;;;5016838;28;20037;-72
2023/07/10 04:11:19;;;;;;;10.80;2.85;;;;;;;;;;5034784;28;20044;-74
2023/07/10 04:13:45;;;;;;;13.48;3.08;;;;;;;;;;5017619;28;20051;-74
2023/07/10 04:16:24;;;;;;;8.98;2.58;;;;;;;;;;5013301;28;20029;-74
2023/07/10 04:18:50;;;;;;;10.73;3.45;;;;;;;;;;5017264;28;20033;-75
2023/07/10 04:21:20;;;;;;;11.60;3.08;;;;;;;;;;5018227;28;20056;-76
2023/07/10 04:23:46;;;;;;;9.30;2.63;;;;;;;;;;5017958;28;20041;-75
2023/07/10 04:26:17;;;;;;;10.88;2.80;;;;;;;;;;5016201;28;20037;-76
2023/07/10 04:28:43;;;;;;;11.40;2.70;;;;;;;;;;5017877;28;20641;-76
2023/07/10 04:31:08;;;;;;;11.73;2.83;;;;;;;;;;5016537;28;20045;-75
2023/07/10 04:33:33;;;;;;;10.85;3.03;;;;;;;;;;5019686;28;20029;-74
2023/07/10 04:35:59;;;;;;;8.20;2.67;;;;;;;;;;5019342;28;20060;-77
2023/07/10 04:38:26;;;;;;;12.50;3.22;;;;;;;;;;5017980;28;20574;-76
2023/07/10 04:40:52;;;;;;;12.18;3.00;;;;;;;;;;5019994;28;20037;-76
2023/07/10 04:43:18;;;;;;;10.45;3.45;;;;;;;;;;5019282;28;20037;-76
2023/07/10 04:45:43;;;;;;;12.40;2.78;;;;;;;;;;5000848;28;20095;-75
2023/07/10 04:48:08;;;;;;;11.18;3.50;;;;;;;;;;5006543;28;20120;-73
2023/07/10 04:50:33;;;;;;;12.73;3.20;;;;;;;;;;5034263;28;20065;-72
2023/07/10 04:52:59;;;;;;;15.50;3.80;;;;;;;;;;5017390;28;20028;-75
2023/07/10 04:55:24;;;;;;;13.15;3.05;;;;;;;;;;5032721;28;20808;-74
2023/07/10 04:57:49;;;;;;;11.57;3.13;;;;;;;;;;5018151;28;20124;-73
2023/07/10 05:00:15;;;;;;;11.02;2.83;;;;;;;;;;5022911;28;20108;-73
2023/07/10 05:02:40;;;;;;;10.20;3.40;;;;;;;;;;5018618;28;20037;-74
2023/07/10 05:05:06;;;;;;;13.18;2.90;;;;;;;;;;5018024;28;20056;-71
2023/07/10 05:07:31;;;;;;;10.43;2.83;;;;;;;;;;5046025;28;20561;-74
2023/07/10 05:09:56;;;;;;;13.82;3.55;;;;;;;;;;5015665;28;20045;-74
2023/07/10 05:12:22;;;;;;;15.05;3.40;;;;;;;;;;5002824;28;20904;-72
2023/07/10 05:14:47;;;;;;;9.38;3.00;;;;;;;;;;5000788;28;21389;-71
2023/07/10 05:17:12;;;;;;;10.60;3.38;;;;;;;;;;5037035;28;20071;-70
2023/07/10 05:19:40;;;;;;;12.07;3.03;;;;;;;;;;5020036;28;20112;-71
2023/07/10 05:22:05;;;;;;;12.77;2.83;;;;;;;;;;4996648;28;20044;-71
2023/07/10 05:24:31;;;;;;;11.05;2.80;;;;;;;;;;4996979;28;20333;-71
2023/07/10 05:26:56;;;;;;;10.23;2.70;;;;;;;;;;5025909;28;20053;-71
2023/07/10 05:29:21;;;;;;;10.98;2.70;;;;;;;;;;5011136;28;20072;-74
2023/07/10 05:31:46;;;;;;;12.70;2.80;;;;;;;;;;5008807;28;20037;-70
2023/07/10 05:34:12;;;;;;;10.43;2.63;;;;;;;;;;5018200;28;20041;-72
2023/07/10 05:36:37;;;;;;;10.07;2.58;;;;;;;;;;5016611;28;20041;-71
2023/07/10 05:39:02;;;;;;;11.70;2.78;;;;;;;;;;4996780;28;20041;-71
2023/07/10 05:41:29;;;;;;;14.32;3.03;;;;;;;;;;4998134;28;20095;-72
2023/07/10 05:43:55;;;;;;;9.05;2.60;;;;;;;;;;4992913;28;20037;-71
2023/07/10 05:46:22;;;;;;;12.40;2.78;;;;;;;;;;5010719;28;20487;-72
2023/07/10 05:48:48;;;;;;;9.38;2.47;;;;;;;;;;5020026;28;20127;-70
2023/07/10 05:51:13;;;;;;;9.13;2.65;;;;;;;;;;5014496;28;20094;-70
2023/07/10 05:53:38;;;;;;;36.28;18.92;;;;;;;;;;5016180;28;20130;-69
2023/07/10 05:56:03;;;;;;;16.58;4.72;;;;;;;;;;5017244;28;20115;-69
2023/07/10 05:58:29;;;;;;;30.65;12.93;;;;;;;;;;5017296;28;20112;-69
2023/07/10 06:00:56;;;;;;;17.27;4.88;;;;;;;;;;5011238;28;20943;-69
2023/07/10 06:03:22;;;;;;;12.35;2.17;;;;;;;;;;5016334;28;20114;-69
2023/07/10 06:05:54;;;;;;;11.75;3.00;;;;;;;;;;5017843;28;20041;-70
2023/07/10 06:08:19;;;;;;;12.90;3.03;;;;;;;;;;5015034;28;20519;-70
2023/07/10 06:10:45;;;;;;;8.90;2.40;;;;;;;;;;5013993;28;20037;-70
2023/07/10 06:13:12;;;;;;;13.25;2.67;;;;;;;;;;5014580;28;20728;-71
2023/07/10 06:15:46;;;;;;;10.18;2.72;;;;;;;;;;5016935;28;20124;-69
2023/07/10 06:18:11;;;;;;;15.77;3.00;;;;;;;;;;5014900;28;20523;-69
2023/07/10 06:20:42;;;;;;;9.35;2.72;;;;;;;;;;5042968;28;20038;-71
2023/07/10 06:23:07;;;;;;;11.48;2.58;;;;;;;;;;5011396;28;20405;-67
2023/07/10 06:25:32;;;;;;;10.98;2.40;;;;;;;;;;5012585;28;20521;-67
2023/07/10 06:27:57;;;;;;;12.18;2.60;;;;;;;;;;5011477;28;20037;-68
2023/07/10 06:30:23;;;;;;;13.43;2.97;;;;;;;;;;5013689;28;20033;-70
2023/07/10 06:32:49;;;;;;;12.43;2.50;;;;;;;;;;5014921;28;20026;-69
2023/07/10 06:35:14;;;;;;;15.23;3.20;;;;;;;;;;5013001;28;20045;-70
2023/07/10 06:37:40;;;;;;;12.73;2.90;;;;;;;;;;4993167;28;20494;-68
2023/07/10 06:40:11;;;;;;;14.70;2.92;;;;;;;;;;4994152;28;20061;-72
2023/07/10 06:42:37;;;;;;;13.50;2.67;;;;;;;;;;4995151;28;20129;-70
2023/07/10 06:45:09;;;;;;;15.68;3.10;;;;;;;;;;5038529;28;20040;-69
2023/07/10 06:47:38;;;;;;;16.25;3.13;;;;;;;;;;5011749;28;20117;-66
2023/07/10 06:50:04;;;;;;;16.00;3.05;;;;;;;;;;5016229;28;20631;-70
2023/07/10 06:52:31;;;;;;;9.93;2.33;;;;;;;;;;4995230;28;20112;-70
2023/07/10 06:54:57;;;;;;;14.02;3.33;;;;;;;;;;5035674;28;20075;-72
2023/07/10 06:57:22;;;;;;;9.25;2.45;;;;;;;;;;5046836;28;20044;-72
2023/07/10 06:59:49;;;;;;;14.60;2.58;;;;;;;;;;5014229;28;20128;-72
2023/07/10 07:02:15;;;;;;;13.30;2.95;;;;;;;;;;5043218;28;20117;-70
2023/07/10 07:04:40;;;;;;;12.50;2.75;;;;;;;;;;4998490;28;20102;-71
2023/07/10 07:07:06;;;;;;;13.00;2.53;;;;;;;;;;4995881;28;20038;-69
2023/07/10 07:09:37;;;;;;;12.02;2.60;;;;;;;;;;5005190;28;20192;-67
2023/07/10 07:12:03;;;;;;;12.00;2.88;;;;;;;;;;5031779;28;20582;-69
2023/07/10 07:14:31;;;;;;;12.95;2.65;;;;;;;;;;5014975;28;20199;-70
2023/07/10 07:16:56;;;;;;;13.25;2.88;;;;;;;;;;5012688;28;20033;-68
2023/07/10 07:19:21;;;;;;;10.02;2.50;;;;;;;;;;5017603;28;20029;-71
2023/07/10 07:21:47;;;;;;;10.68;2.63;;;;;;;;;;5014076;28;20528;-70
2023/07/10 07:24:12;;;;;;;10.38;2.45;;;;;;;;;;5015744;28;20067;-68
2023/07/10 07:26:37;;;;;;;8.35;2.33;;;;;;;;;;5019412;28;20045;-69
2023/07/10 07:29:03;;;;;;;14.30;3.03;;;;;;;;;;5016300;28;20158;-69
2023/07/10 07:31:28;;;;;;;9.98;2.53;;;;;;;;;;5018873;28;20037;-69
2023/07/10 07:33:54;;;;;;;12.35;2.92;;;;;;;;;;5017359;28;20233;-68
2023/07/10 07:36:20;;;;;;;9.23;2.40;;;;;;;;;;5019171;28;20041;-69
2023/07/10 07:38:45;;;;;;;10.25;2.65;;;;;;;;;;5018690;28;20048;-68
2023/07/10 07:41:10;;;;;;;9.77;2.28;;;;;;;;;;5033605;28;20029;-67
2023/07/10 07:43:36;;;;;;;12.80;3.13;;;;;;;;;;5016839;28;20774;-69
2023/07/10 07:46:02;;;;;;;11.18;2.65;;;;;;;;;;5018308;28;20049;-69
2023/07/10 07:48:30;;;;;;;12.68;2.80;;;;;;;;;;5018131;28;20456;-67
2023/07/10 07:50:57;;;;;;;12.48;2.72;;;;;;;;;;5019936;28;20033;-70
2023/07/10 07:53:22;;;;;;;11.70;2.70;;;;;;;;;;5018564;28;20067;-69
2023/07/10 07:55:47;;;;;;;11.10;2.72;;;;;;;;;;5019016;28;20045;-70
2023/07/10 07:58:13;;;;;;;17.13;3.20;;;;;;;;;;5019812;28;20049;-68
2023/07/10 08:00:38;;;;;;;12.63;2.45;;;;;;;;;;5035296;28;20750;-68
2023/07/10 08:03:03;;;;;;;13.30;2.67;;;;;;;;;;5016707;28;20048;-68
2023/07/10 08:05:29;;;;;;;12.52;2.92;;;;;;;;;;5018803;28;20048;-69
2023/07/10 08:07:54;;;;;;;12.65;2.85;;;;;;;;;;5019751;28;20377;-68
2023/07/10 08:10:19;;;;;;;12.25;2.70;;;;;;;;;;5014190;28;20033;-68
2023/07/10 08:12:45;;;;;;;15.50;3.20;;;;;;;;;;5016077;28;20048;-70
2023/07/10 08:15:12;;;;;;;16.00;3.10;;;;;;;;;;5043932;28;20096;-67
2023/07/10 08:17:37;;;;;;;37.13;4.05;;;;;;;;;;4995010;28;20048;-68
2023/07/10 08:20:03;;;;;;;9.70;2.42;;;;;;;;;;4997347;28;20038;-67
2023/07/10 08:22:28;;;;;;;11.32;2.88;;;;;;;;;;4993261;28;20034;-69
2023/07/10 08:24:53;;;;;;;14.20;2.63;;;;;;;;;;4998298;28;20057;-67
2023/07/10 08:27:19;;;;;;;12.45;2.90;;;;;;;;;;5030597;28;20034;-67
2023/07/10 08:29:45;;;;;;;12.25;2.58;;;;;;;;;;4998063;28;20061;-67
2023/07/10 08:32:10;;;;;;;11.07;2.60;;;;;;;;;;4996311;28;20026;-68
2023/07/10 08:34:35;;;;;;;13.30;2.97;;;;;;;;;;5011414;28;20052;-69
2023/07/10 08:37:01;;;;;;;14.00;2.60;;;;;;;;;;4999098;28;20030;-70
2023/07/10 08:39:29;;;;;;;12.63;2.40;;;;;;;;;;4996795;28;20567;-68
2023/07/10 08:42:08;;;;;;;10.43;1.95;;;;;;;;;;4997832;28;20498;-70
2023/07/10 08:44:37;;;;;;;11.45;2.40;;;;;;;;;;5026448;28;20448;-69
2023/07/10 08:47:09;;;;;;;7.72;2.20;;;;;;;;;;5006420;28;20496;-67
2023/07/10 08:49:43;;;;;;;129.55;14.23;;;;;;;;;;5014970;28;20044;-69
2023/07/10 08:52:11;;;;;;;18.65;3.17;;;;;;;;;;5017219;28;20232;-69
2023/07/10 08:54:36;;;;;;;10.82;2.00;;;;;;;;;;5017811;28;20583;-69
2023/07/10 08:57:17;;;;;;;13.70;2.55;;;;;;;;;;5018600;28;20035;-67
2023/07/10 08:59:50;;;;;;;11.27;2.63;;;;;;;;;;5017176;28;20043;-67
2023/07/10 09:02:36;;;;;;;11.07;2.40;;;;;;;;;;5016474;28;20549;-68
2023/07/10 09:05:03;;;;;;;11.63;2.40;;;;;;;;;;5047670;28;20860;-67
2023/07/10 09:07:29;;;;;;;12.63;2.35;;;;;;;;;;5000657;28;20044;-66
2023/07/10 09:10:06;;;;;;;11.98;2.70;;;;;;;;;;5016764;28;20036;-68
2023/07/10 09:12:31;;;;;;;9.27;2.22;;;;;;;;;;5015191;28;20136;-69
2023/07/10 09:15:00;;;;;;;17.25;2.70;;;;;;;;;;5017067;28;20053;-68
2023/07/10 09:17:40;;;;;;;11.35;2.65;;;;;;;;;;5018058;28;20405;-68
2023/07/10 09:20:10;;;;;;;13.27;3.00;;;;;;;;;;5018287;28;20507;-68
2023/07/10 09:22:36;;;;;;;10.93;2.60;;;;;;;;;;5031028;28;20033;-68
2023/07/10 09:25:01;;;;;;;11.38;2.53;;;;;;;;;;5028591;28;20036;-66
2023/07/10 09:27:26;;;;;;;13.45;2.67;;;;;;;;;;5016052;28;20091;-66
2023/07/10 09:29:53;;;;;;;10.48;2.40;;;;;;;;;;5016846;28;20076;-70
2023/07/10 09:32:20;;;;;;;12.57;2.70;;;;;;;;;;5011529;28;20083;-69
2023/07/10 09:34:46;;;;;;;9.35;2.33;;;;;;;;;;5023225;28;20053;-69
2023/07/10 09:37:12;;;;;;;13.68;2.90;;;;;;;;;;4997510;28;20037;-67
2023/07/10 09:39:37;;;;;;;12.07;2.92;;;;;;;;;;5003800;28;20907;-66
2023/07/10 09:42:04;;;;;;;13.77;2.90;;;;;;;;;;4998233;28;20038;-67
2023/07/10 09:44:37;;;;;;;12.48;2.70;;;;;;;;;;4995335;28;20092;-67
2023/07/10 09:47:11;;;;;;;10.07;2.80;;;;;;;;;;5000788;28;20044;-68
2023/07/10 09:49:41;;;;;;;16.98;3.40;;;;;;;;;;4996619;28;20030;-67
2023/07/10 09:52:14;;;;;;;11.27;2.47;;;;;;;;;;4997003;28;20075;-66
2023/07/10 09:54:39;;;;;;;16.88;2.95;;;;;;;;;;4992392;28;20045;-68
2023/07/10 09:57:12;;;;;;;13.18;2.47;;;;;;;;;;5003314;28;20040;-66
2023/07/10 09:59:37;;;;;;;18.02;3.00;;;;;;;;;;5030427;28;20037;-67
2023/07/10 10:02:14;;;;;;;13.90;2.80;;;;;;;;;;5011463;28;20638;-70
2023/07/10 10:04:41;;;;;;;15.00;3.40;;;;;;;;;;5009293;28;20750;-67
2023/07/10 10:07:13;;;;;;;19.63;3.10;;;;;;;;;;4991824;28;20099;-66
2023/07/10 10:09:43;;;;;;;14.43;2.97;;;;;;;;;;4996023;28;20122;-66
2023/07/10 10:12:17;;;;;;;12.35;2.97;;;;;;;;;;4995294;28;20494;-67
2023/07/10 10:14:47;;;;;;;11.15;2.67;;;;;;;;;;4991558;28;20232;-68
2023/07/10 10:17:14;;;;;;;13.13;2.53;;;;;;;;;;4996549;28;20033;-69
2023/07/10 10:19:44;;;;;;;15.00;2.75;;;;;;;;;;4997292;28;20229;-65
2023/07/10 10:22:10;;;;;;;13.10;2.45;;;;;;;;;;4997433;28;20041;-66
2023/07/10 10:24:36;;;;;;;15.35;2.85;;;;;;;;;;4997103;28;20042;-68
2023/07/10 10:27:13;;;;;;;14.73;3.00;;;;;;;;;;4996427;28;20037;-69
2023/07/10 10:29:57;;;;;;;11.80;2.75;;;;;;;;;;5012201;28;20037;-66
2023/07/10 10:32:27;;;;;;;11.05;2.42;;;;;;;;;;5011938;28;20044;-66
2023/07/10 10:34:59;;;;;;;11.17;2.60;;;;;;;;;;5016952;28;20052;-69
2023/07/10 10:37:42;;;;;;;8.27;2.20;;;;;;;;;;5017011;28;20110;-69
2023/07/10 10:40:08;;;;;;;12.98;2.50;;;;;;;;;;5014323;28;20599;-68
2023/07/10 10:42:45;;;;;;;14.00;2.92;;;;;;;;;;4994076;28;20048;-66
2023/07/10 10:45:17;;;;;;;14.13;3.00;;;;;;;;;;4996752;28;20174;-67
2023/07/10 10:47:57;;;;;;;11.95;2.65;;;;;;;;;;5011726;28;20048;-68
2023/07/10 10:50:33;;;;;;;12.32;2.80;;;;;;;;;;5014479;28;20136;-66
2023/07/10 10:53:25;;;;;;;13.40;2.30;;;;;;;;;;5011087;28;20119;-64
2023/07/10 10:55:55;;;;;;;11.82;2.60;;;;;;;;;;5012520;28;20079;-66
2023/07/10 10:58:30;;;;;;;13.55;2.80;;;;;;;;;;5013756;28;20379;-67
2023/07/10 11:00:55;;;;;;;15.32;2.80;;;;;;;;;;4996790;28;22564;-67
2023/07/10 11:03:23;;;;;;;15.23;2.55;;;;;;;;;;5010029;28;20090;-66
2023/07/10 11:05:52;;;;;;;62.30;5.63;;;;;;;;;;5014584;28;20045;-70
2023/07/10 11:08:18;;;;;;;13.80;2.63;;;;;;;;;;5029085;28;20042;-66
2023/07/10 11:10:44;;;;;;;15.18;2.65;;;;;;;;;;5015085;28;20043;-66
2023/07/10 11:13:17;;;;;;;11.20;2.60;;;;;;;;;;5012810;28;20037;-66
2023/07/10 11:15:43;;;;;;;17.13;2.83;;;;;;;;;;5018566;28;20055;-68
2023/07/10 11:18:10;;;;;;;10.77;2.45;;;;;;;;;;5045009;28;22115;-69
2023/07/10 11:20:36;;;;;;;9.23;2.50;;;;;;;;;;5017048;28;20627;-68
2023/07/10 11:23:04;;;;;;;12.48;2.72;;;;;;;;;;5017214;28;20094;-68
2023/07/10 11:25:30;;;;;;;15.57;3.33;;;;;;;;;;5015654;28;20033;-69
2023/07/10 11:28:03;;;;;;;15.05;2.83;;;;;;;;;;5007969;28;20108;-65
2023/07/10 11:30:30;;;;;;;17.88;2.67;;;;;;;;;;4993092;28;20034;-65
2023/07/10 11:32:55;;;;;;;12.50;2.60;;;;;;;;;;4996569;28;21983;-67
2023/07/10 11:35:21;;;;;;;12.75;2.33;;;;;;;;;;5014385;28;20045;-68
2023/07/10 11:37:47;;;;;;;11.77;2.35;;;;;;;;;;5016480;28;20294;-69
2023/07/10 11:40:32;;;;;;;19.25;3.58;;;;;;;;;;5015098;28;20041;-66
2023/07/10 11:43:21;;;;;;;12.45;2.47;;;;;;;;;;5012839;28;20267;-68
2023/07/10 11:45:50;;;;;;;168.15;23.38;;;;;;;;;;5010250;28;20128;-66
2023/07/10 11:48:34;;;;;;;17.15;2.55;;;;;;;;;;5043046;28;20226;-67
2023/07/10 11:51:01;;;;;;;12.20;2.63;;;;;;;;;;5014222;28;20079;-65
2023/07/10 11:53:26;;;;;;;19.40;3.05;;;;;;;;;;5014236;28;20037;-67
2023/07/10 11:56:04;;;;;;;17.70;3.00;;;;;;;;;;5028158;28;20654;-66
2023/07/10 11:58:33;;;;;;;16.08;2.75;;;;;;;;;;5024034;28;20741;-72
2023/07/10 12:01:21;;;;;;;17.63;2.92;;;;;;;;;;4990232;28;20373;-67
2023/07/10 12:03:46;;;;;;;11.30;2.40;;;;;;;;;;5023795;28;20825;-68
2023/07/10 12:06:22;;;;;;;15.45;2.75;;;;;;;;;;4995270;28;20045;-68
2023/07/10 12:08:48;;;;;;;13.88;2.70;;;;;;;;;;4999690;28;20087;-68
2023/07/10 12:11:45;;;;;;;10.38;2.10;;;;;;;;;;5000972;28;20106;-66
2023/07/10 12:14:15;;;;;;;8.68;2.10;;;;;;;;;;5000280;28;22369;-68
2023/07/10 12:16:44;;;;;;;9.60;2.17;;;;;;;;;;4998874;28;20034;-69
2023/07/10 12:19:13;;;;;;;9.23;2.15;;;;;;;;;;5011777;28;20036;-67
2023/07/10 12:21:38;;;;;;;10.00;3.05;;;;;;;;;;5016970;28;20040;-67
2023/07/10 12:24:13;;;;;;;7.18;1.90;;;;;;;;;;5016496;28;20083;-66
2023/07/10 12:26:40;;;;;;;12.35;2.22;;;;;;;;;;5018179;28;20030;-67
2023/07/10 12:29:15;;;;;;;7.43;1.40;;;;;;;;;;5019531;28;20047;-65
2023/07/10 12:31:44;;;;;;;10.23;1.80;;;;;;;;;;5017588;28;20147;-66
2023/07/10 12:34:23;;;;;;;7.15;1.73;;;;;;;;;;5018576;28;20049;-65
2023/07/10 12:36:50;;;;;;;11.23;2.20;;;;;;;;;;5016315;28;20466;-67
2023/07/10 12:39:21;;;;;;;26.92;3.30;;;;;;;;;;5018120;28;20033;-67
2023/07/10 12:41:53;;;;;;;12.85;1.95;;;;;;;;;;5012722;28;20620;-67
2023/07/10 12:44:21;;;;;;;14.70;2.70;;;;;;;;;;5049651;28;20040;-68
2023/07/10 12:46:51;;;;;;;13.25;1.90;;;;;;;;;;5013232;28;20041;-66
2023/07/10 12:49:17;;;;;;;14.02;2.15;;;;;;;;;;5017249;28;20179;-69
2023/07/10 12:51:44;;;;;;;8.02;1.80;;;;;;;;;;5030814;28;20037;-66
2023/07/10 12:54:30;;;;;;;12.05;2.15;;;;;;;;;;5018445;28;20398;-69
2023/07/10 12:56:56;;;;;;;7.40;1.70;;;;;;;;;;5013818;28;20037;-67
2023/07/10 12:59:26;;;;;;;7.53;1.90;;;;;;;;;;5013531;28;20036;-66
2023/07/10 13:01:53;;;;;;;7.90;1.75;;;;;;;;;;5007044;28;20037;-67
2023/07/10 13:04:28;;;;;;;8.45;2.38;;;;;;;;;;5014378;28;20314;-66
2023/07/10 13:07:12;;;;;;;8.98;2.25;;;;;;;;;;5016829;28;20480;-67
2023/07/10 13:09:40;;;;;;;6.70;1.70;;;;;;;;;;5013637;28;20282;-68
2023/07/10 13:12:14;;;;;;;8.57;1.63;;;;;;;;;;5005891;28;20123;-70
2023/07/10 13:14:40;;;;;;;8.38;1.77;;;;;;;;;;4994857;28;20045;-68
2023/07/10 13:17:09;;;;;;;8.95;1.92;;;;;;;;;;4998062;28;20047;-68
2023/07/10 13:19:35;;;;;;;6.63;1.55;;;;;;;;;;5013453;28;20560;-68
2023/07/10 13:22:02;;;;;;;7.18;1.75;;;;;;;;;;5016251;28;20048;-68
2023/07/10 13:24:27;;;;;;;7.53;1.90;;;;;;;;;;5016962;28;20083;-68
2023/07/10 13:26:53;;;;;;;5.70;1.40;;;;;;;;;;5014104;28;20597;-67
2023/07/10 13:29:18;;;;;;;7.93;2.08;;;;;;;;;;5016927;28;20037;-66
2023/07/10 13:31:43;;;;;;;10.30;2.03;;;;;;;;;;5015761;28;20315;-67
2023/07/10 13:34:14;;;;;;;6.70;1.48;;;;;;;;;;5015567;28;20067;-68
2023/07/10 13:36:40;;;;;;;6.07;1.73;;;;;;;;;;5015376;28;20044;-67
2023/07/10 13:39:16;;;;;;;9.20;1.50;;;;;;;;;;5009905;28;20141;-69
2023/07/10 13:41:41;;;;;;;5.70;1.67;;;;;;;;;;4991288;28;20735;-67
2023/07/10 13:44:09;;;;;;;5.75;1.50;;;;;;;;;;5023522;28;20033;-67
2023/07/10 13:46:36;;;;;;;5.53;1.52;;;;;;;;;;5011256;28;20402;-68
2023/07/10 13:49:05;;;;;;;7.47;1.50;;;;;;;;;;5010856;28;20221;-66
2023/07/10 13:51:31;;;;;;;9.52;1.65;;;;;;;;;;4992939;28;20046;-68
2023/07/10 13:53:57;;;;;;;7.65;1.42;;;;;;;;;;4995041;28;20126;-68
2023/07/10 13:56:24;;;;;;;7.47;1.77;;;;;;;;;;5001914;28;20060;-68
2023/07/10 13:58:52;;;;;;;5.30;1.40;;;;;;;;;;5013153;28;20032;-67
2023/07/10 14:01:18;;;;;;;5.97;1.63;;;;;;;;;;4991821;28;20072;-68
2023/07/10 14:03:45;;;;;;;4.60;1.40;;;;;;;;;;4993531;28;20033;-66
2023/07/10 14:06:31;;;;;;;4.57;1.35;;;;;;;;;;4993791;28;20042;-66
2023/07/10 14:08:58;;;;;;;5.72;1.40;;;;;;;;;;4991499;28;20104;-68
2023/07/10 14:11:24;;;;;;;7.00;1.63;;;;;;;;;;4996382;28;20041;-66
2023/07/10 14:13:50;;;;;;;4.82;1.52;;;;;;;;;;4995163;28;20715;-66
2023/07/10 14:16:17;;;;;;;4.35;1.45;;;;;;;;;;5003925;28;20101;-67
2023/07/10 14:18:43;;;;;;;5.68;1.30;;;;;;;;;;5010910;28;20039;-67
2023/07/10 14:21:10;;;;;;;5.15;1.10;;;;;;;;;;5042131;28;20854;-67
2023/07/10 14:23:35;;;;;;;5.15;1.60;;;;;;;;;;5011685;28;20295;-67
2023/07/10 14:26:01;;;;;;;5.88;1.48;;;;;;;;;;5025883;28;20034;-68
2023/07/10 14:28:26;;;;;;;4.63;1.20;;;;;;;;;;4993024;28;20029;-68
2023/07/10 14:30:54;;;;;;;6.07;1.48;;;;;;;;;;4989380;28;20131;-68
2023/07/10 14:33:20;;;;;;;5.05;1.50;;;;;;;;;;4991531;28;20223;-69
2023/07/10 14:35:49;;;;;;;5.25;1.50;;;;;;;;;;4992912;28;20048;-67
2023/07/10 14:38:27;;;;;;;6.57;1.38;;;;;;;;;;4988865;28;20029;-68